Welcome! (You are not logged in)
 


MTP - New Members
Welcome to all new MTP Users!
(Users with complete profiles are listed in bold)
Date
Registered
Name Home Base   # Visited # Remaining
2016-12-07 09:17:35 Ivanov Mikhail Russia 125 750
2016-12-06 10:34:21 Ryan French Rutland, Vermont, USA 0 875
2016-12-06 08:28:41 Oliver Strecker Gemmingen, Baden-Wuerttemberg, Germany 0 875
2016-12-06 06:07:16 K Sherman Kitwe, Zambia 43 832
2016-12-06 05:07:24 Rashmi Rao Bangalore, Karnataka, India 21 854
2016-12-06 03:33:04 Shilpa Reddy Bangalore, Karnataka, India 0 875
2016-12-05 14:43:14 Jan Grasshoff Berlin, Berlin, Germany 234 641
2016-12-05 13:45:48 Diego Abrahão-Lindley Sunny Isles Beach, Florida, USA 33 842
2016-12-05 13:21:21 Peter Haase Denmark 90 785
2016-12-04 16:10:37 Alexis Lee Flagstaff, Arizona, USA 0 875
2016-12-04 12:29:09 Gabriel Barnes United Kingdom 0 875
2016-12-04 04:35:39 Tora Marie Wedervang Stavanger, Norway 49 826
2016-12-03 08:43:39 Desjardins Benoit Montréal, Quebec, Canada 138 737
2016-12-03 08:19:28 Miguel Vicente Spain 121 754
2016-12-03 02:28:03 John Machold Coronado, California, USA 0 875
2016-12-03 01:54:01 Ravi Capeles Norwalk, Connecticut, USA 26 849
2016-12-02 10:30:01 Wojciech Borkowski Swidnica, Poland 0 875
2016-12-02 03:50:07 Kevin Jacobs Passaic, New Jersey, USA 26 849
2016-12-02 02:27:22 Katherine Vallera California, USA 122 753
2016-12-01 21:22:36 Matthias Schwarz California, USA 289 586
2016-12-01 16:25:00 Laura Ralph Dakar, Senegal 0 875
2016-11-30 12:23:29 Anjali Nagrani Atlanta, Georgia, USA 79 796
2016-11-29 11:25:59 Renee Knee San Rafael, California, USA 0 875
2016-11-29 06:05:29 Patrick Jackson Melbourne, Victoria, Australia 0 875
2016-11-29 05:33:51 David Adriance Kenya 97 778
2016-11-29 02:37:04 Angelika Baumstark Munich, Bayern, Germany 30 845
2016-11-29 01:55:47 Idoumou Abderrahmane Nouakchott, Mauritania 0 875
2016-11-28 23:27:33 Christian Kaspar Germany 169 706
2016-11-28 13:26:11 Richard Brunauer Salzburg, Austria 0 875
2016-11-28 10:14:45 Antonius Ramme Bielefeld, Nordrhein-Westfalen, Germany 119 756
2016-11-28 02:51:56 Damiaan Vreman Dodoma, Tanzania 157 718
2016-11-27 15:24:15 Robert Levesley Leeds, United Kingdom 0 875
2016-11-27 15:08:05 Shaun Obrien Cardiff, United Kingdom 10 865
2016-11-27 02:17:11 Zoltan Tihamer Molnar Szombathely, Hungary 71 804
2016-11-27 01:17:34 Nikolaus Lorenz Hamburg, Hamburg, Germany 0 875
2016-11-27 00:27:15 Corinna Heinzmann Baden-Wuerttemberg, Germany 54 821
2016-11-26 10:31:55 Raquel Neves Esposende, Portugal 429 446
2016-11-26 09:03:34 Micha³ Ko³odziejczyk Warsaw, Poland 14 861
2016-11-26 08:46:44 Troy Donahue Miami, Florida, USA 0 875
2016-11-25 14:28:13 Jason Heminger Columbia, Maryland, USA 52 823
2016-11-25 06:29:28 Marie Meier Copenhagen, Denmark 0 875
2016-11-25 05:14:17 Alain GIASSON ST-LAMBERT, Quebec, Canada 91 784
2016-11-25 02:55:35 Phi Stanley Sydney, New South Wales, Australia 176 699
2016-11-24 22:23:33 Paul Schouwenaar Amsterdam, Netherlands 172 703
2016-11-24 15:47:48 Łukasz Bonisławski Łódź, Poland 0 875
2016-11-24 15:46:48 Peter Reinod Ingolstadt, Bayern, Germany 67 808
2016-11-24 10:04:50 Heiko Ballauf Jena, Thueringen, Germany 99 776
2016-11-23 23:38:40 Jeffry Van Berkum Alkmaar, Netherlands 71 804
2016-11-23 20:10:30 Leslie Sigmon Baltimore, Maryland, USA 84 791
2016-11-23 13:14:42 Stina Siivonen Finland 258 617
2016-11-22 22:56:53 Genevieve Deschenes Rimouski, Quebec, Canada 55 820
2016-11-21 17:41:49 Umesh Jain Toronto, Ontario, Canada 0 875
2016-11-21 15:10:14 Gilles Presseault Quebec, Canada 167 708
2016-11-21 13:52:43 Jan Vowinkel Hameln, Niedersachsen, Germany 475 400
2016-11-21 13:14:07 Peter Heidecker Munich, Bayern, Germany 180 695
2016-11-21 12:15:00 Virginia Chan Munich, Bayern, Germany 31 844
2016-11-21 11:15:29 Heidsti Baecker München, Bayern, Germany 160 715
2016-11-21 04:14:17 Carmen Escudero Madrid, Madrid, Spain 0 875
2016-11-20 23:44:16 Jan Holz Frankfurt, Hessen, Germany 0 875
2016-11-20 17:12:58 William Archambault Montreal, Quebec, Canada 0 875
2016-11-20 15:20:08 Tessie Kansanniva Maynard, Massachusetts, USA 0 875
2016-11-20 14:33:31 André Delorme Granby, Quebec, Canada 0 875
2016-11-20 13:54:26 Elizabeth Ott Aschaffenburg, Bayern, Germany 0 875
2016-11-20 11:10:46 Claude Binette Verdun, Quebec, Canada 47 828
2016-11-20 10:50:41 Mihail Hadzhitodorov Sofia, Bulgaria 24 851
2016-11-20 10:07:30 Georg Heuchert Wörthsee, Bayern, Germany 119 756
2016-11-20 10:05:58 Michel Demers Montreal, Quebec, Canada 0 875
2016-11-20 08:44:35 Silke Weineck Salzburg, Austria 133 742
2016-11-20 08:41:53 Matthias Weh Berlin, Berlin, Germany 0 875
2016-11-20 07:57:33 Lutz Driever Berlin, Berlin, Germany 113 762
2016-11-20 07:21:30 Silke Schulze Bielefeld, Nordrhein-Westfalen, Germany 0 875
2016-11-20 00:36:15 Hans Stratmann Wetter, Nordrhein-Westfalen, Germany 0 875
2016-11-19 19:47:22 Alain Poitras Quebec, Canada 207 668
2016-11-19 17:14:21 Bernhard Zacherl Vienna, Austria 105 770
2016-11-19 16:56:29 Christiane Carmel Laval, Quebec, Canada 0 875
2016-11-19 15:13:24 Patrice Gervais Greenfield Park, Quebec, Canada 243 632
2016-11-19 13:12:33 Ron Calderoni Boucherville, Quebec, Canada 0 875
2016-11-19 12:18:14 Sylvie Fournier Quebec, Quebec, Canada 55 820
2016-11-19 11:09:29 Melanie Gauthier Montreal, Quebec, Canada 50 825
2016-11-19 10:11:17 Johannes Golüke Düsseldorf, Nordrhein-Westfalen, Germany 90 785
2016-11-19 10:10:53 Marie-Christine Larochelle Montréal, Quebec, Canada 53 822
2016-11-19 09:36:27 Nikolaus Wilhelm-Stempin Germany 137 738
2016-11-19 09:30:39 Richard Perreault Quebec, Canada 107 768
2016-11-19 08:53:48 Martin Poirier Quebec, Canada 188 687
2016-11-19 08:31:35 Michel Champagne St-bruno de montarville, Quebec, Canada 11 864
2016-11-19 08:02:49 Marc Andre Van Winden Quebec, Canada 86 789
2016-11-19 07:52:55 Johanne Lefort Montreal, Quebec, Canada 0 875
2016-11-19 07:34:40 Pier-Anne Gaulin Coaticook, Quebec, Canada 17 858
2016-11-19 06:49:28 David Galarneau Quebec, Canada 119 756
2016-11-19 06:36:36 Martine St-Pierre Laval, Quebec, Canada 150 725
2016-11-18 16:30:28 Petra Schneider Zürich, Zurich, Switzerland 90 785
2016-11-18 09:09:19 Leslie Gallup Colorado Springs, Colorado, USA 97 778
2016-11-18 05:08:20 Ulrich Schlüter Berlin, Berlin, Germany 214 661
2016-11-18 04:40:19 Henrike Zacharias Kiel, Schleswig-Holstein, Germany 32 843
2016-11-18 04:30:38 Nikola Rašiæ Croatia 77 798
2016-11-18 04:04:05 Viacheslav Groshev Moscow, Russia 71 804
2016-11-18 01:42:10 Daniel Kalthoff Berin, Berlin, Germany 47 828
2016-11-17 01:45:04 Per Magnusson Sweden 113 762
2016-11-16 09:54:55 Stephan Rebelein München, Bayern, Germany 157 718
2016-11-16 04:25:25 Friedrich Lynkeus Berlin, Berlin, Germany 158 717
2016-11-16 03:34:48 Vrn N Tamil Nadu, India 27 848
2016-11-16 02:34:29 Walter Brombacher Lörrach, Baden-Wuerttemberg, Germany 0 875
2016-11-16 01:52:16 Asf Feassf Efasef, Albania 0 875
2016-11-15 21:11:16 Mick Wurts California, USA 60 815
2016-11-15 15:26:02 Marco Hochenegger Vienna, Austria 34 841
2016-11-15 13:51:20 Henning Willoh Hannover, Niedersachsen, Germany 75 800
2016-11-15 11:58:29 Patrick Germany 65 810
2016-11-15 09:24:20 Ilka Melcher Muenchen, Bayern, Germany 90 785
2016-11-15 05:33:41 Katharina Milota Vienna, Austria 0 875
2016-11-15 04:40:47 Robert Oehlert Leipzig, Sachsen, Germany 45 830
2016-11-14 15:43:54 Tonio Lang Berlin, Berlin, Germany 145 730
2016-11-14 13:41:23 Bjoern Seidel Paris, Ile-de-France, France 165 710
2016-11-14 12:58:54 Martin Klatt Flensburg, Schleswig-Holstein, Germany 107 768
2016-11-14 12:13:41 Daniel Persson GÄLLÖ, Sweden 82 793
2016-11-14 10:12:35 Floriane Pillon Munich, Bayern, Germany 56 819
2016-11-14 10:05:35 Ray Hankamer Houston, Texas, USA 0 875
2016-11-14 09:23:19 Gesa Pusch-Thomas Fulda, Hessen, Germany 110 765
2016-11-14 03:50:23 Kari Sistonen Helsinki, Finland 136 739
2016-11-14 02:09:13 Lars Oeverdieck Berlin, Berlin, Germany 70 805
2016-11-13 11:25:31 Joanna Ruderman Califon, New Jersey, USA 74 801
2016-11-13 07:18:11 Franz Niedertscheider Mayrhofen, Austria 0 875
2016-11-13 05:30:28 Benjamin Straub Kitwe, Zambia 67 808
2016-11-13 04:44:14 John Van Dijk Berlin, Berlin, Germany 64 811
2016-11-13 04:21:36 Eva Golas Innsbruck, Austria 19 856
2016-11-13 01:56:54 Magnus S Obernburg, Bayern, Germany 67 808
2016-11-13 01:14:51 H K Germany 0 875
2016-11-12 21:17:52 Jan Perschke Hamburg, Hamburg, Germany 0 875
2016-11-12 20:39:44 Joshua Gibbs Redmond, Washington, USA 0 875
2016-11-12 14:37:49 Stefan Bliem Meran, Trentino-Alto Adige, Italy 44 831
2016-11-12 08:27:22 Jens Richter Dresden, Sachsen, Germany 188 687
2016-11-12 08:10:01 Mark Cale Lodnon, United Kingdom 111 764
2016-11-12 07:40:41 Ute Kopp Berlin, Berlin, Germany 97 778
2016-11-12 05:44:26 Horst Horst Leipzig, Sachsen, Germany 0 875
2016-11-12 03:26:25 Elmar Schulte Bad Homburg, Hessen, Germany 205 670
2016-11-12 00:42:42 Eva H Prague, Czech Republic 0 875
2016-11-11 23:17:50 Gertraud Sommer Honolulu, Hawaii, USA 172 703
2016-11-11 14:32:38 Germany 78 797
2016-11-11 14:16:42 Jeroen B Budapest, Hungary 182 693
2016-11-11 13:52:14 Gottfried Tepper Germany 187 688
2016-11-11 13:38:34 Matt Costin London, United Kingdom 102 773
2016-11-11 05:58:26 Daniel Jonathan Frenkel Karlsruhe, Baden-Wuerttemberg, Germany 75 800
2016-11-11 01:08:45 Michelle Kerschen Esch-sur-Alzette, Luxembourg 0 875
2016-11-11 00:30:06 Simon Berthoud Versoix, Geneve, Switzerland 3 872
2016-11-11 00:06:48 Eric Büchli St. Gallen, Sankt Gallen, Switzerland 59 816
2016-11-10 15:29:53 Steve Baumgartner Minnesota, USA 84 791
2016-11-10 14:23:06 Nick Coenen Amsterdam, Netherlands 33 842
2016-11-10 12:33:16 Gonçalo Ferreira Lisboa, Portugal 0 875
2016-11-10 09:26:13 Karl-Heinz Seifert Lauenburg, Schleswig-Holstein, Germany 0 875
2016-11-09 13:06:13 Emese Fejer Budapest, Hungary 162 713
2016-11-08 15:08:30 Adam Vaday Los Angeles, California, USA 0 875
2016-11-08 08:38:11 Kat Whitman Acworth, Georgia, USA 0 875
2016-11-07 15:16:37 Andrew Kelly Illinois, USA 38 837